Airfield :
LOGIN :

Register | Disclaimer

   EN    FR    IT 

 










Legend :    VFR   Marginal VFR   IFR   Intensive IFR   Very Intensive IFR
Visi :
Ceiling :
>= 8 km
>= 3000ft
5 to 8 km
1000 to 3000 ft
1500m to 5 km
500 to 1000 ft
800 to 1500m
200 to 500 ft
< 800m
< 200 ft
Symbols :   Thunderstorms  Fog  Heavy snow  Heavy precipitations  Wind > 20 kt
SIGMETs :     Misc.  Thunderstorms  Icing  Turbulence  Mountain Waves  Volcanic Ashes






- Airport Elevation : 870 ft
- IATA code : ETZ


LFJL - Metz Nancy Lorraine

CURRENT METAR :
  • 190000Z AUTO 09008KT CAVOK 20/13 Q1020 NOSIG

EXPIRED METARs :
  • 182330Z AUTO 09008KT CAVOK 20/13 Q1021 NOSIG
  • 182300Z AUTO 10009KT CAVOK 20/13 Q1021 NOSIG
  • 182230Z AUTO 09008KT CAVOK 20/13 Q1021 NOSIG
  • 182200Z AUTO 08009KT CAVOK 20/13 Q1021 NOSIG
  • 182130Z AUTO 08009KT CAVOK 21/13 Q1021 NOSIG
  • 182100Z AUTO 08008KT CAVOK 21/13 Q1021 NOSIG
  • 182030Z AUTO 08008KT CAVOK 21/13 Q1021 NOSIG
  • 182000Z AUTO 08008KT CAVOK 21/14 Q1021 NOSIG
  • 181930Z AUTO 08008KT CAVOK 22/14 Q1021 NOSIG

TAF TAF LFJL
Valid from the 19 at 00:00 until the 20 at 00:00 UTC


182300Z 1900/1924 07006KT CAVOK
PROB30
TEMPO 1922/1924 FEW080TCU



MET'MAP, your aeronautical weather chart ! - Copyright ORBIFLY December 2007 - Disclaimer

ORBIFLY MET'MAP TEAM :

Programming & Development : Alexandra Zaïnal
Original concept : Baudouin d'Aumeries
Technical & hardware support : Manuel Goepfert
Assistance : Marc-Olivier Méhu




SOURCES & CREDITS :

   NOAA